Time;durP1;ratioP1;P1;durP2;ratioP2;P2;SDS_P1;SDS_P2;PMS_P1;PMS_P2;Temp;Humidity;BMP_temperature;BMP_pressure;BME280_temperature;BME280_humidity;BME280_pressure;Samples;Min_cycle;Max_cycle;Signal;HPM_P1;HPM_P2
2024/04/10 00:00:51;;;;;;;12.43;3.03;;;12.00;76.90;;;;;;11315924;25;20334;-63
2024/04/10 00:06:01;;;;;;;10.98;2.38;;;12.00;76.20;;;;;;11316413;25;21452;-63
2024/04/10 00:11:09;;;;;;;8.98;2.40;;;12.00;76.60;;;;;;11316719;25;20250;-64
2024/04/10 00:16:15;;;;;;;14.75;2.63;;;12.00;76.20;;;;;;11316805;25;20342;-64
2024/04/10 00:21:21;;;;;;;10.65;2.70;;;11.90;76.20;;;;;;11317687;25;20226;-64
2024/04/10 00:26:29;;;;;;;9.93;2.42;;;11.90;76.70;;;;;;11327358;25;20298;-64
2024/04/10 00:31:34;;;;;;;14.65;3.45;;;11.80;76.50;;;;;;11316756;25;20230;-64
2024/04/10 00:36:40;;;;;;;11.00;2.83;;;11.70;76.20;;;;;;11325892;25;20234;-64
2024/04/10 00:41:48;;;;;;;11.05;2.53;;;11.70;76.30;;;;;;11329463;25;20234;-63
2024/04/10 00:46:53;;;;;;;10.23;3.20;;;11.70;76.40;;;;;;11330358;25;20245;-64
2024/04/10 00:51:59;;;;;;;9.48;2.75;;;11.70;77.30;;;;;;11331288;25;21617;-63
2024/04/10 00:57:07;;;;;;;11.98;2.10;;;11.70;77.20;;;;;;11329829;25;20318;-64
2024/04/10 01:02:13;;;;;;;11.15;2.55;;;11.70;76.20;;;;;;11330248;25;20701;-64
2024/04/10 01:07:18;;;;;;;12.00;2.60;;;11.70;76.40;;;;;;11322510;25;20233;-63
2024/04/10 01:12:28;;;;;;;12.32;2.85;;;11.70;76.50;;;;;;11319400;25;20237;-63
2024/04/10 01:17:35;;;;;;;13.57;3.00;;;11.60;76.20;;;;;;11323120;25;20329;-63
2024/04/10 01:22:40;;;;;;;9.43;2.33;;;11.60;77.70;;;;;;11321460;25;20233;-63
2024/04/10 01:27:48;;;;;;;13.25;3.05;;;11.60;77.30;;;;;;11320062;25;20233;-64
2024/04/10 01:32:54;;;;;;;15.43;2.83;;;11.60;76.60;;;;;;11323609;25;20310;-63
2024/04/10 01:38:00;;;;;;;12.77;2.80;;;11.50;76.80;;;;;;11322687;25;20238;-64
2024/04/10 01:43:08;;;;;;;9.52;2.65;;;11.50;76.10;;;;;;11319247;25;20245;-64
2024/04/10 01:48:13;;;;;;;12.02;2.60;;;11.40;77.20;;;;;;11335374;25;20314;-64
2024/04/10 01:53:19;;;;;;;13.15;3.10;;;11.40;77.60;;;;;;11331565;25;21858;-64
2024/04/10 01:58:27;;;;;;;14.35;2.50;;;11.40;77.60;;;;;;11230128;25;20322;-64
2024/04/10 02:03:32;;;;;;;13.30;3.08;;;11.40;77.30;;;;;;11269045;25;20392;-64
2024/04/10 02:08:38;;;;;;;12.00;2.58;;;11.30;76.80;;;;;;11333520;25;20320;-64
2024/04/10 02:13:46;;;;;;;13.02;3.00;;;11.30;76.50;;;;;;11329703;25;22394;-64
2024/04/10 02:18:51;;;;;;;13.65;2.88;;;11.30;76.90;;;;;;11328816;25;20353;-64
2024/04/10 02:23:57;;;;;;;15.60;3.35;;;11.30;76.30;;;;;;11326222;25;20342;-64
2024/04/10 02:29:06;;;;;;;12.70;2.72;;;11.30;76.30;;;;;;11323519;25;20329;-63
2024/04/10 02:34:11;;;;;;;13.77;2.70;;;11.30;76.40;;;;;;11330307;25;20238;-63
2024/04/10 02:39:17;;;;;;;12.48;3.00;;;11.20;76.50;;;;;;11330217;25;20249;-64
2024/04/10 02:44:25;;;;;;;12.00;2.97;;;11.20;76.50;;;;;;11327086;25;20230;-63
2024/04/10 02:49:30;;;;;;;8.18;2.45;;;11.20;77.50;;;;;;11316491;25;20295;-64
2024/04/10 02:54:36;;;;;;;9.63;2.92;;;11.10;76.80;;;;;;11319072;25;20306;-63
2024/04/10 02:59:44;;;;;;;14.18;3.15;;;11.10;76.40;;;;;;11316173;25;20297;-63
2024/04/10 03:04:49;;;;;;;10.60;2.55;;;11.00;76.50;;;;;;11314034;25;20672;-64
2024/04/10 03:09:54;;;;;;;8.67;2.70;;;11.00;77.00;;;;;;11317122;25;20226;-64
2024/04/10 03:15:04;;;;;;;12.98;2.60;;;11.10;77.50;;;;;;11321532;25;20245;-63
2024/04/10 03:20:12;;;;;;;15.93;3.00;;;11.00;76.50;;;;;;11321238;25;20234;-64
2024/04/10 03:25:18;;;;;;;11.35;2.90;;;11.00;76.50;;;;;;11312267;25;20229;-64
2024/04/10 03:30:26;;;;;;;14.30;3.42;;;10.90;76.40;;;;;;11308954;25;20234;-64
2024/04/10 03:35:32;;;;;;;10.63;2.95;;;10.90;76.60;;;;;;11304172;25;20353;-63
2024/04/10 03:40:38;;;;;;;11.65;2.63;;;10.80;76.50;;;;;;11305934;25;20229;-66
2024/04/10 03:45:49;;;;;;;12.25;3.08;;;10.80;76.90;;;;;;11297502;25;20234;-61
2024/04/10 03:51:00;;;;;;;12.30;3.00;;;10.80;77.10;;;;;;11296120;25;20234;-62
2024/04/10 03:56:06;;;;;;;10.50;3.15;;;10.80;77.10;;;;;;11297297;25;20293;-60
2024/04/10 04:01:14;;;;;;;14.50;2.88;;;10.80;77.00;;;;;;11294947;25;20329;-62
2024/04/10 04:06:20;;;;;;;12.93;2.90;;;10.80;77.50;;;;;;11287424;25;20791;-61
2024/04/10 04:11:25;;;;;;;16.10;3.42;;;10.80;77.00;;;;;;11194839;25;20242;-61
2024/04/10 04:16:34;;;;;;;9.43;3.08;;;10.80;77.00;;;;;;11297931;25;20338;-63
2024/04/10 04:21:39;;;;;;;13.48;3.10;;;10.80;77.10;;;;;;11299462;25;20333;-62
2024/04/10 04:26:45;;;;;;;13.15;3.30;;;10.80;77.30;;;;;;11296759;25;20238;-62
2024/04/10 04:31:53;;;;;;;12.10;3.15;;;10.80;77.00;;;;;;11295816;25;20238;-62
2024/04/10 04:36:58;;;;;;;12.50;3.45;;;10.80;77.30;;;;;;11295078;25;20234;-63
2024/04/10 04:42:04;;;;;;;10.95;3.13;;;10.80;77.50;;;;;;11299117;25;20234;-61
2024/04/10 04:47:12;;;;;;;18.60;4.05;;;10.90;77.90;;;;;;11296553;25;20230;-61
2024/04/10 04:52:17;;;;;;;15.63;3.50;;;10.90;78.00;;;;;;11195106;25;21348;-62
2024/04/10 04:57:23;;;;;;;13.25;3.55;;;10.90;78.40;;;;;;11296005;25;20329;-62
2024/04/10 05:02:31;;;;;;;17.00;4.60;;;10.80;78.50;;;;;;11294538;25;20235;-62
2024/04/10 05:07:36;;;;;;;13.25;3.53;;;10.90;78.40;;;;;;11297031;25;20226;-62
2024/04/10 05:12:42;;;;;;;11.77;4.13;;;10.90;78.40;;;;;;11297562;25;20338;-62
2024/04/10 05:17:51;;;;;;;14.65;3.65;;;10.90;78.80;;;;;;11293988;25;20318;-63
2024/04/10 05:22:57;;;;;;;15.85;3.40;;;10.90;78.90;;;;;;11298658;25;20580;-61
2024/04/10 05:28:02;;;;;;;14.13;3.95;;;11.00;78.80;;;;;;11301940;25;20303;-62
2024/04/10 05:33:10;;;;;;;10.75;3.42;;;11.00;78.80;;;;;;11301171;25;20230;-63
2024/04/10 05:38:16;;;;;;;12.75;3.90;;;11.00;78.60;;;;;;11298412;25;20733;-67
2024/04/10 05:43:21;;;;;;;13.55;3.47;;;11.10;78.60;;;;;;11296843;25;21571;-66
2024/04/10 05:48:29;;;;;;;11.60;3.42;;;11.10;78.60;;;;;;11295903;25;20234;-66
2024/04/10 05:53:35;;;;;;;12.13;4.03;;;11.20;78.50;;;;;;11298343;25;20331;-67
2024/04/10 05:58:41;;;;;;;14.60;3.78;;;11.20;78.50;;;;;;11295543;25;20333;-68
2024/04/10 06:03:50;;;;;;;14.30;3.80;;;11.30;78.80;;;;;;11297572;25;20234;-66
2024/04/10 06:08:56;;;;;;;14.18;3.53;;;11.40;79.20;;;;;;11300199;25;20230;-67
2024/04/10 06:14:01;;;;;;;10.93;3.72;;;11.40;79.00;;;;;;11301835;25;20358;-66
2024/04/10 06:19:10;;;;;;;14.13;3.75;;;11.40;79.10;;;;;;11301286;25;21525;-67
2024/04/10 06:24:18;;;;;;;8.27;3.58;;;11.40;79.40;;;;;;11301710;25;20242;-67
2024/04/10 06:29:23;;;;;;;14.15;3.90;;;11.40;79.30;;;;;;11299502;25;20230;-67
2024/04/10 06:34:31;;;;;;;13.93;3.90;;;11.50;79.10;;;;;;11309309;25;21536;-68
2024/04/10 06:39:37;;;;;;;15.02;3.85;;;11.40;79.50;;;;;;11377955;25;20234;-69
2024/04/10 06:44:43;;;;;;;12.38;3.78;;;11.50;80.00;;;;;;11358872;25;20237;-68
2024/04/10 06:49:53;;;;;;;10.45;3.60;;;11.50;79.20;;;;;;11304260;25;20705;-70
2024/04/10 06:54:59;;;;;;;13.27;3.65;;;11.60;79.20;;;;;;11307225;25;20245;-71
2024/04/10 07:00:12;;;;;;;14.80;3.65;;;11.70;79.40;;;;;;11307116;25;20234;-70
2024/04/10 07:05:23;;;;;;;11.23;3.70;;;11.70;79.30;;;;;;11305947;25;20284;-72
2024/04/10 07:10:28;;;;;;;13.75;3.92;;;11.80;78.90;;;;;;11337111;25;20309;-70
2024/04/10 07:15:34;;;;;;;14.43;4.10;;;11.80;79.00;;;;;;11301838;25;20362;-67
2024/04/10 07:20:42;;;;;;;17.95;4.38;;;11.90;79.00;;;;;;11291127;25;21539;-67
2024/04/10 07:25:48;;;;;;;10.30;3.47;;;12.00;78.90;;;;;;11291270;25;20369;-67
2024/04/10 07:30:54;;;;;;;13.88;3.85;;;12.00;78.70;;;;;;11192204;25;20341;-66
2024/04/10 07:36:09;;;;;;;13.05;3.78;;;12.00;78.80;;;;;;11289138;25;20316;-66
2024/04/10 07:41:15;;;;;;;13.50;4.20;;;12.00;78.80;;;;;;11309215;25;20221;-63
2024/04/10 07:46:22;;;;;;;9.43;3.55;;;12.00;78.90;;;;;;11353274;25;20352;-66
2024/04/10 07:51:30;;;;;;;13.13;4.13;;;12.00;79.50;;;;;;11436241;25;20226;-69
2024/04/10 07:56:35;;;;;;;14.38;4.43;;;12.20;78.70;;;;;;11432232;25;20317;-66
2024/04/10 08:01:42;;;;;;;11.38;4.18;;;12.30;78.50;;;;;;11435626;25;20732;-67
2024/04/10 08:06:50;;;;;;;14.32;4.68;;;12.40;78.50;;;;;;11424241;25;20233;-66
2024/04/10 08:11:56;;;;;;;10.70;4.28;;;12.40;78.40;;;;;;11432424;25;20230;-66
2024/04/10 08:17:01;;;;;;;12.25;4.40;;;12.50;78.40;;;;;;11440044;25;20266;-65
2024/04/10 08:22:09;;;;;;;13.45;5.07;;;12.40;78.70;;;;;;11431416;25;20943;-66
2024/04/10 08:27:15;;;;;;;13.85;5.72;;;12.30;78.40;;;;;;11425767;25;20862;-66
2024/04/10 08:32:20;;;;;;;12.55;5.38;;;12.30;78.40;;;;;;11428739;25;20635;-66
2024/04/10 08:37:28;;;;;;;12.48;6.10;;;12.40;78.20;;;;;;11432013;25;20230;-67
2024/04/10 08:42:36;;;;;;;16.15;6.75;;;12.50;78.80;;;;;;11430420;25;20317;-68
2024/04/10 08:47:42;;;;;;;15.07;7.93;;;12.70;78.00;;;;;;11408740;25;21089;-68
2024/04/10 08:52:52;;;;;;;17.27;8.05;;;12.80;77.70;;;;;;11383207;25;20253;-69
2024/04/10 08:57:58;;;;;;;14.13;6.88;;;12.90;77.40;;;;;;11310091;25;20707;-70
2024/04/10 09:03:04;;;;;;;15.45;6.90;;;13.00;76.80;;;;;;11307438;25;20356;-74
2024/04/10 09:08:12;;;;;;;10.48;5.55;;;13.00;77.00;;;;;;11314726;25;20323;-69
2024/04/10 09:13:18;;;;;;;11.23;5.25;;;13.10;76.80;;;;;;11428657;25;20780;-67
2024/04/10 09:18:25;;;;;;;17.13;5.40;;;13.10;76.70;;;;;;11429961;25;20864;-66
2024/04/10 09:23:33;;;;;;;16.38;4.82;;;13.00;76.10;;;;;;11377392;25;20333;-61
2024/04/10 09:28:38;;;;;;;13.98;5.20;;;13.00;75.90;;;;;;11320950;25;20233;-64
2024/04/10 09:33:44;;;;;;;16.02;6.32;;;13.10;76.50;;;;;;11332919;25;21686;-62
2024/04/10 09:38:52;;;;;;;11.23;4.78;;;13.30;76.20;;;;;;11327557;25;20302;-62
2024/04/10 09:43:58;;;;;;;8.13;4.25;;;13.50;76.00;;;;;;11327277;25;20386;-61
2024/04/10 09:49:12;;;;;;;12.90;4.70;;;13.60;75.30;;;;;;11331899;25;20329;-63
2024/04/10 09:54:20;;;;;;;9.55;4.68;;;13.60;75.40;;;;;;11320024;25;20237;-64
2024/04/10 09:59:27;;;;;;;10.65;5.20;;;13.70;75.30;;;;;;11315992;25;20230;-62
2024/04/10 10:04:40;;;;;;;14.38;5.15;;;13.90;75.10;;;;;;11310419;25;20238;-62
2024/04/10 10:09:48;;;;;;;10.85;3.75;;;14.00;75.00;;;;;;11311581;25;20246;-62
2024/04/10 10:14:53;;;;;;;8.30;3.17;;;14.10;74.60;;;;;;11313051;25;20245;-62
2024/04/10 10:19:59;;;;;;;8.75;3.33;;;14.10;73.50;;;;;;11319531;25;20302;-62
2024/04/10 10:25:08;;;;;;;7.18;3.00;;;14.20;73.60;;;;;;11317813;25;20237;-62
2024/04/10 10:30:13;;;;;;;4.85;2.47;;;14.50;73.40;;;;;;11316753;25;20329;-63
2024/04/10 10:35:19;;;;;;;7.90;3.08;;;14.60;73.50;;;;;;11313138;25;20229;-63
2024/04/10 10:40:27;;;;;;;10.27;3.97;;;14.50;72.50;;;;;;11306046;25;20317;-63
2024/04/10 10:45:33;;;;;;;13.85;5.78;;;14.30;73.10;;;;;;11307379;25;21812;-63
2024/04/10 10:50:39;;;;;;;11.77;5.38;;;14.20;72.90;;;;;;11312017;25;20303;-61
2024/04/10 10:55:55;;;;;;;12.40;5.30;;;14.10;73.10;;;;;;11309223;25;20339;-60
2024/04/10 11:01:01;;;;;;;9.38;4.78;;;14.20;73.70;;;;;;11313860;25;20330;-62
2024/04/10 11:06:10;;;;;;;8.70;4.10;;;14.50;73.90;;;;;;11313914;25;20250;-61
2024/04/10 11:11:19;;;;;;;8.48;3.30;;;14.70;73.60;;;;;;11225364;25;20237;-63
2024/04/10 11:16:31;;;;;;;6.47;3.30;;;15.00;73.10;;;;;;11319298;25;20233;-64
2024/04/10 11:21:37;;;;;;;7.10;2.92;;;15.40;73.30;;;;;;11319895;25;20317;-62
2024/04/10 11:26:47;;;;;;;5.47;2.90;;;15.80;71.20;;;;;;11318865;25;20242;-61
2024/04/10 11:31:53;;;;;;;9.38;3.13;;;15.60;70.60;;;;;;11326134;25;20657;-67
2024/04/10 11:36:58;;;;;;;7.65;2.15;;;15.50;71.20;;;;;;11330217;25;20234;-61
2024/04/10 11:42:07;;;;;;;6.60;2.55;;;15.50;69.10;;;;;;11316895;25;20428;-59
2024/04/10 11:47:12;;;;;;;3.97;2.15;;;15.60;70.70;;;;;;11324969;25;20286;-62
2024/04/10 11:52:18;;;;;;;5.13;1.80;;;15.60;68.60;;;;;;11330147;25;20336;-61
2024/04/10 11:57:26;;;;;;;6.10;1.95;;;15.60;67.90;;;;;;11326389;21;20263;-62
2024/04/10 12:02:32;;;;;;;6.97;2.50;;;15.50;66.70;;;;;;11205563;26;20741;-61
2024/04/10 12:07:38;;;;;;;7.63;2.00;;;15.40;66.80;;;;;;11220157;26;20339;-61
2024/04/10 12:12:50;;;;;;;5.28;1.95;;;15.40;68.30;;;;;;11073291;26;20295;-63
2024/04/10 12:17:55;;;;;;;3.92;1.52;;;15.50;67.60;;;;;;11068160;26;20342;-63
2024/04/10 12:23:01;;;;;;;5.47;2.00;;;15.40;66.30;;;;;;11066586;26;20812;-63
2024/04/10 12:28:09;;;;;;;4.32;1.20;;;15.30;66.50;;;;;;11067409;26;20234;-63
2024/04/10 12:33:15;;;;;;;4.50;1.83;;;15.30;65.90;;;;;;11079727;26;20259;-62
2024/04/10 12:38:20;;;;;;;5.65;1.83;;;15.20;65.50;;;;;;11072419;26;20237;-63
2024/04/10 12:43:30;;;;;;;6.90;2.00;;;15.20;65.10;;;;;;11071933;26;21632;-63
2024/04/10 12:48:35;;;;;;;4.97;1.92;;;15.20;65.20;;;;;;11069340;26;20241;-62
2024/04/10 12:53:41;;;;;;;4.75;1.90;;;15.20;64.60;;;;;;11070460;26;20241;-63
2024/04/10 12:58:49;;;;;;;4.40;1.85;;;15.20;64.80;;;;;;11078219;26;20242;-63
2024/04/10 13:03:55;;;;;;;5.40;1.98;;;15.70;65.20;;;;;;11075227;26;20241;-63
2024/04/10 13:09:00;;;;;;;8.00;2.03;;;16.30;65.50;;;;;;11075519;26;20318;-63
2024/04/10 13:14:09;;;;;;;7.22;1.73;;;16.70;63.90;;;;;;11075726;26;21756;-63
2024/04/10 13:19:14;;;;;;;4.20;1.77;;;17.00;64.40;;;;;;11075732;26;20354;-64
2024/04/10 13:24:20;;;;;;;7.35;1.80;;;17.30;63.60;;;;;;11075527;26;20333;-63
2024/04/10 13:29:28;;;;;;;6.32;1.65;;;17.30;62.70;;;;;;11075528;26;22067;-62
2024/04/10 13:34:34;;;;;;;4.57;1.90;;;17.50;62.30;;;;;;11073661;26;20237;-63
2024/04/10 13:39:40;;;;;;;8.18;1.80;;;17.50;62.10;;;;;;11072063;26;20356;-65
2024/04/10 13:44:50;;;;;;;4.50;1.70;;;18.30;61.40;;;;;;11109631;26;20271;-62
2024/04/10 13:50:00;;;;;;;5.07;1.75;;;18.70;58.70;;;;;;11132467;26;20245;-68
2024/04/10 13:55:06;;;;;;;3.13;1.80;;;19.20;59.70;;;;;;11056702;26;20905;-59
2024/04/10 14:00:15;;;;;;;6.35;2.10;;;19.70;58.30;;;;;;11077810;26;20317;-61
2024/04/10 14:05:21;;;;;;;5.15;1.60;;;20.20;59.10;;;;;;11073573;26;20245;-64
2024/04/10 14:10:27;;;;;;;5.82;2.10;;;20.70;58.10;;;;;;11097193;26;20308;-61
2024/04/10 14:15:35;;;;;;;3.90;1.73;;;20.90;57.00;;;;;;11192402;26;20328;-60
2024/04/10 14:20:40;;;;;;;3.33;1.52;;;21.30;57.50;;;;;;11203284;26;20768;-61
2024/04/10 14:25:45;;;;;;;4.07;1.50;;;21.80;56.70;;;;;;11213829;26;20346;-61
2024/04/10 14:31:03;;;;;;;4.90;1.50;;;22.10;56.10;;;;;;11193336;26;20258;-61
2024/04/10 14:36:10;;;;;;;4.93;1.42;;;22.50;55.10;;;;;;11192019;26;20641;-61
2024/04/10 14:41:15;;;;;;;5.22;1.80;;;22.50;54.30;;;;;;11178474;26;20303;-60
2024/04/10 14:46:23;;;;;;;5.70;1.60;;;22.90;54.50;;;;;;11135918;26;21790;-61
2024/04/10 14:51:29;;;;;;;5.78;1.60;;;23.10;54.30;;;;;;11065753;26;20233;-64
2024/04/10 14:56:37;;;;;;;6.50;1.73;;;23.40;53.80;;;;;;11059671;26;20244;-64
2024/04/10 15:01:45;;;;;;;5.68;2.00;;;23.50;53.50;;;;;;11057849;26;20228;-64
2024/04/10 15:06:51;;;;;;;5.90;1.88;;;23.80;52.60;;;;;;11056401;26;21152;-64
2024/04/10 15:11:56;;;;;;;2.63;1.23;;;24.10;52.50;;;;;;11060806;26;20237;-63
2024/04/10 15:17:04;;;;;;;3.83;1.30;;;23.70;51.70;;;;;;11058843;26;20813;-64
2024/04/10 15:23:40;;;;;;;2.92;1.20;;;22.70;48.70;;;;;;11227580;25;22638;-64
2024/04/10 15:28:47;;;;;;;3.13;1.27;;;22.60;51.40;;;;;;11205696;25;20240;-64
2024/04/10 15:33:52;;;;;;;4.70;1.42;;;22.20;50.10;;;;;;11199448;25;20242;-63
2024/04/10 15:39:02;;;;;;;4.07;1.40;;;22.20;51.10;;;;;;11200449;25;20242;-63
2024/04/10 15:44:08;;;;;;;2.58;1.13;;;22.70;51.80;;;;;;11199723;26;20234;-64
2024/04/10 15:49:14;;;;;;;4.28;1.10;;;22.80;49.90;;;;;;11198150;25;20246;-63
2024/04/10 15:54:22;;;;;;;3.28;1.25;;;22.80;49.20;;;;;;11196537;25;20300;-64
2024/04/10 15:59:28;;;;;;;4.72;1.60;;;23.10;49.70;;;;;;11195907;25;22067;-64
2024/04/10 16:04:33;;;;;;;2.78;1.40;;;23.50;49.60;;;;;;11192953;25;20319;-64
2024/04/10 16:09:44;;;;;;;5.22;1.73;;;23.70;49.20;;;;;;11193499;25;20358;-64
2024/04/10 16:14:51;;;;;;;3.88;1.33;;;23.20;49.40;;;;;;11198075;25;21608;-64
2024/04/10 16:19:56;;;;;;;4.60;1.67;;;23.30;49.40;;;;;;11220496;25;20241;-64
2024/04/10 16:25:05;;;;;;;6.55;1.52;;;23.70;48.80;;;;;;11275971;25;20335;-63
2024/04/10 16:30:11;;;;;;;4.80;1.40;;;23.70;46.40;;;;;;11274203;25;20328;-64
2024/04/10 16:35:16;;;;;;;2.97;1.15;;;23.50;46.90;;;;;;11241288;26;22892;-63
2024/04/10 16:40:25;;;;;;;4.78;1.50;;;22.60;44.20;;;;;;11242231;26;20264;-64
2024/04/10 16:45:30;;;;;;;4.45;1.58;;;22.20;45.80;;;;;;11240876;26;20685;-63
2024/04/10 16:50:36;;;;;;;3.42;1.48;;;21.70;45.50;;;;;;11239668;26;20227;-64
2024/04/10 16:55:44;;;;;;;3.70;1.40;;;21.40;45.80;;;;;;11238724;26;20234;-64
2024/04/10 17:00:49;;;;;;;3.08;1.30;;;20.70;46.40;;;;;;11242369;26;20310;-64
2024/04/10 17:05:55;;;;;;;3.90;1.08;;;20.20;46.40;;;;;;11240904;26;20369;-65
2024/04/10 17:11:03;;;;;;;4.50;1.40;;;19.70;47.40;;;;;;11236993;26;20238;-62
2024/04/10 17:16:10;;;;;;;4.65;1.20;;;19.20;46.50;;;;;;11238780;26;20241;-63
2024/04/10 17:26:41;;;;;;;3.17;1.20;;;18.60;47.10;;;;;;11237133;26;20242;-63
2024/04/10 17:31:47;;;;;;;3.70;1.20;;;18.40;47.30;;;;;;11237136;26;20343;-63
2024/04/10 17:36:53;;;;;;;2.92;1.00;;;18.10;47.40;;;;;;11177670;26;20681;-63
2024/04/10 17:42:01;;;;;;;3.15;1.13;;;17.90;47.20;;;;;;11238730;26;20319;-63
2024/04/10 17:47:07;;;;;;;3.95;1.40;;;17.70;47.90;;;;;;11240672;26;20342;-63
2024/04/10 17:52:12;;;;;;;3.58;1.33;;;17.50;47.50;;;;;;11239469;26;20288;-63
2024/04/10 17:57:20;;;;;;;6.55;1.67;;;17.30;47.50;;;;;;11236597;26;20328;-61
2024/04/10 18:02:29;;;;;;;4.57;1.45;;;17.10;47.80;;;;;;11242420;26;20238;-61
2024/04/10 18:07:35;;;;;;;3.75;1.23;;;17.00;47.90;;;;;;11242598;26;20320;-60
2024/04/10 18:12:43;;;;;;;4.68;1.50;;;16.80;48.10;;;;;;11244450;26;20246;-60
2024/04/10 18:17:50;;;;;;;3.58;1.20;;;16.70;48.00;;;;;;11254223;21;20231;-63
2024/04/10 18:22:56;;;;;;;4.30;1.63;;;16.60;48.30;;;;;;11076860;26;20309;-61
2024/04/10 18:28:04;;;;;;;7.07;1.90;;;16.50;48.80;;;;;;11077058;26;20250;-62
2024/04/10 18:33:10;;;;;;;4.00;1.52;;;16.40;49.00;;;;;;11029918;26;20243;-63
2024/04/10 18:38:17;;;;;;;4.00;1.65;;;16.30;49.20;;;;;;11028176;26;21542;-61
2024/04/10 18:43:26;;;;;;;4.47;1.50;;;16.20;49.50;;;;;;11040529;26;20234;-64
2024/04/10 18:48:41;;;;;;;4.82;1.83;;;16.00;49.90;;;;;;11027441;26;20241;-62
2024/04/10 18:53:48;;;;;;;4.28;1.60;;;15.90;49.80;;;;;;11028979;26;20242;-60
2024/04/10 18:58:56;;;;;;;6.78;1.70;;;15.80;50.00;;;;;;11023889;26;20258;-62
2024/04/10 19:04:02;;;;;;;5.22;1.60;;;15.70;50.30;;;;;;11021554;26;20898;-61
2024/04/10 19:09:08;;;;;;;5.68;2.10;;;15.60;50.70;;;;;;11018739;26;21329;-60
2024/04/10 19:14:17;;;;;;;5.10;1.75;;;15.40;51.60;;;;;;10951329;26;20242;-60
2024/04/10 19:19:22;;;;;;;4.85;1.60;;;15.30;51.20;;;;;;10945611;26;20328;-61
2024/04/10 19:24:28;;;;;;;4.32;1.40;;;15.20;51.20;;;;;;10956603;26;20234;-58
2024/04/10 19:29:36;;;;;;;4.15;1.55;;;15.10;51.40;;;;;;10941799;26;20330;-60
2024/04/10 19:34:41;;;;;;;3.97;1.50;;;15.00;51.60;;;;;;10940573;26;20351;-60
2024/04/10 19:39:47;;;;;;;5.20;1.67;;;14.90;51.70;;;;;;10941673;26;20255;-60
2024/04/10 19:44:55;;;;;;;4.72;1.70;;;14.80;51.80;;;;;;10944815;26;20355;-59
2024/04/10 19:50:00;;;;;;;5.40;1.95;;;14.70;51.90;;;;;;10945539;26;20243;-60
2024/04/10 19:55:06;;;;;;;4.18;2.42;;;14.60;52.10;;;;;;10946198;26;20246;-59
2024/04/10 20:00:15;;;;;;;5.78;2.65;;;14.60;52.30;;;;;;10948595;26;20361;-61
2024/04/10 20:05:21;;;;;;;7.03;2.83;;;14.50;52.40;;;;;;10951990;26;20266;-60
2024/04/10 20:10:26;;;;;;;10.50;5.80;;;14.30;52.70;;;;;;10953375;26;20243;-59
2024/04/10 20:15:36;;;;;;;5.57;2.85;;;14.30;52.80;;;;;;10960220;26;22541;-62
2024/04/10 20:20:42;;;;;;;6.90;2.95;;;14.20;53.50;;;;;;10962645;26;20246;-59
2024/04/10 20:25:55;;;;;;;7.82;2.78;;;14.10;53.20;;;;;;10958497;26;20327;-60
2024/04/10 20:31:06;;;;;;;7.70;2.45;;;14.00;53.70;;;;;;10959635;26;20247;-61
2024/04/10 20:36:12;;;;;;;5.30;2.20;;;13.90;53.80;;;;;;10955685;26;20238;-60
2024/04/10 20:41:18;;;;;;;6.75;2.33;;;13.80;53.90;;;;;;10957120;26;21042;-60
2024/04/10 20:46:26;;;;;;;4.05;2.08;;;13.80;54.20;;;;;;10956705;26;21969;-60
2024/04/10 20:51:31;;;;;;;7.72;2.10;;;13.70;54.40;;;;;;10957698;26;22264;-60
2024/04/10 20:56:37;;;;;;;6.10;2.22;;;13.60;54.60;;;;;;10957470;26;20243;-60
2024/04/10 21:01:45;;;;;;;4.88;2.50;;;13.60;54.80;;;;;;10960466;26;20239;-60
2024/04/10 22:11:27;;;;;;;6.95;2.40;;;13.00;55.70;;;;;;10961315;26;21973;-65
2024/04/10 22:23:57;;;;;;;10.98;3.50;;;12.90;56.00;;;;;;10950264;26;20886;-63
2024/04/10 22:27:23;;;;;;;4.03;1.90;;;12.80;56.10;;;;;;10950935;26;20236;-60
2024/04/10 22:32:28;;;;;;;5.90;1.92;;;12.70;56.00;;;;;;10954840;26;20322;-59
2024/04/10 22:37:36;;;;;;;4.78;1.90;;;12.70;56.40;;;;;;10955422;26;20230;-59
2024/04/10 22:42:42;;;;;;;4.13;1.83;;;12.60;56.40;;;;;;10956636;26;20239;-60
2024/04/10 22:47:47;;;;;;;7.50;1.77;;;12.60;56.70;;;;;;10957925;26;20758;-59
2024/04/10 22:52:55;;;;;;;5.05;1.90;;;12.50;56.40;;;;;;10956516;26;21606;-60
2024/04/10 22:58:01;;;;;;;3.95;2.00;;;12.50;56.80;;;;;;10953561;26;20238;-61
2024/04/10 23:03:06;;;;;;;6.10;1.80;;;12.40;56.80;;;;;;10955092;26;20231;-60
2024/04/10 23:08:15;;;;;;;3.58;2.13;;;12.40;57.20;;;;;;10956192;26;20884;-59
2024/04/10 23:13:36;;;;;;;6.63;2.60;;;12.40;57.40;;;;;;10951810;26;20235;-60
2024/04/10 23:18:41;;;;;;;5.53;2.67;;;12.30;57.40;;;;;;10951071;26;22253;-60
2024/04/10 23:24:09;;;;;;;4.32;2.17;;;12.30;57.50;;;;;;10951768;26;21488;-60
2024/04/10 23:29:15;;;;;;;6.82;2.25;;;12.20;57.40;;;;;;10950764;26;20321;-60
2024/04/10 23:34:20;;;;;;;4.28;2.17;;;12.20;58.20;;;;;;10952569;26;20301;-61
2024/04/10 23:39:29;;;;;;;5.93;2.15;;;12.10;57.30;;;;;;10950942;26;20838;-60
2024/04/10 23:44:34;;;;;;;5.38;2.33;;;12.10;57.70;;;;;;10960380;26;20243;-59
2024/04/10 23:49:40;;;;;;;6.50;1.90;;;12.10;57.10;;;;;;10958622;26;20235;-60
2024/04/10 23:54:48;;;;;;;4.28;1.90;;;12.10;56.90;;;;;;10955893;26;20332;-60
2024/04/10 23:59:53;;;;;;;6.60;2.03;;;12.10;57.20;;;;;;10956178;26;20626;-60
